createdAt,value
2022-09-06T00:00:28.730Z,50.00
2022-09-06T00:02:55.283Z,50.00
2022-09-06T00:05:21.892Z,49.90
2022-09-06T00:07:48.398Z,50.00
2022-09-06T00:10:14.927Z,50.00
2022-09-06T00:12:41.439Z,49.90
2022-09-06T00:15:07.937Z,49.90
2022-09-06T00:17:34.464Z,49.90
2022-09-06T00:20:01.012Z,49.90
2022-09-06T00:22:27.525Z,49.90
2022-09-06T00:24:54.022Z,49.90
2022-09-06T00:27:20.536Z,49.90
2022-09-06T00:29:47.058Z,49.90
2022-09-06T00:32:13.573Z,49.80
2022-09-06T00:34:40.078Z,49.80
2022-09-06T00:37:06.599Z,49.90
2022-09-06T00:39:33.182Z,49.80
2022-09-06T00:41:59.701Z,49.90
2022-09-06T00:44:26.211Z,50.00
2022-09-06T00:46:52.734Z,49.90
2022-09-06T00:49:19.241Z,49.80
2022-09-06T00:51:45.772Z,49.80
2022-09-06T00:54:12.280Z,49.80
2022-09-06T00:56:38.816Z,49.90
2022-09-06T00:59:05.333Z,49.90
2022-09-06T01:01:31.951Z,49.90
2022-09-06T01:03:58.518Z,49.80
2022-09-06T01:06:25.050Z,49.80
2022-09-06T01:08:51.562Z,49.80
2022-09-06T01:11:18.093Z,49.70
2022-09-06T01:13:44.607Z,49.70
2022-09-06T01:16:11.194Z,49.90
2022-09-06T01:18:37.773Z,49.90
2022-09-06T01:21:04.288Z,49.80
2022-09-06T01:23:30.807Z,49.80
2022-09-06T01:25:57.338Z,49.90
2022-09-06T01:28:23.876Z,49.90
2022-09-06T01:30:50.450Z,49.80
2022-09-06T01:33:16.995Z,49.80
2022-09-06T01:35:43.528Z,49.90
2022-09-06T01:38:10.051Z,49.80
2022-09-06T01:40:36.710Z,49.80
2022-09-06T01:43:04.556Z,49.90
2022-09-06T01:45:32.564Z,49.70
2022-09-06T01:47:59.081Z,49.70
2022-09-06T01:50:25.618Z,49.80
2022-09-06T01:52:52.116Z,49.80
2022-09-06T01:55:18.630Z,49.80
2022-09-06T01:57:45.149Z,49.70
2022-09-06T02:00:11.667Z,49.60
2022-09-06T02:02:38.307Z,49.60
2022-09-06T02:05:04.862Z,49.50
2022-09-06T02:07:31.366Z,49.60
2022-09-06T02:09:57.913Z,49.50
2022-09-06T02:12:24.421Z,49.60
2022-09-06T02:14:50.978Z,49.50
2022-09-06T02:17:17.489Z,49.60
2022-09-06T02:19:44.008Z,49.50
2022-09-06T02:22:10.527Z,49.50
2022-09-06T02:24:37.024Z,49.50
2022-09-06T02:27:03.553Z,49.40
2022-09-06T02:29:30.067Z,49.50
2022-09-06T02:31:56.583Z,49.40
2022-09-06T02:34:23.093Z,49.50
2022-09-06T02:36:49.609Z,49.40
2022-09-06T02:39:16.135Z,49.40
2022-09-06T02:41:42.673Z,49.40
2022-09-06T02:44:09.193Z,50.20
2022-09-06T02:46:35.688Z,49.50
2022-09-06T02:49:02.213Z,49.40
2022-09-06T02:51:28.734Z,49.60
2022-09-06T02:53:55.247Z,49.50
2022-09-06T02:56:21.775Z,49.40
2022-09-06T02:58:48.296Z,49.30
2022-09-06T03:01:14.842Z,50.10
2022-09-06T03:03:41.654Z,49.20
2022-09-06T03:06:08.182Z,49.10
2022-09-06T03:08:34.708Z,49.10
2022-09-06T03:11:01.217Z,49.20
2022-09-06T03:13:27.735Z,49.20
2022-09-06T03:15:54.241Z,49.20
2022-09-06T03:18:20.797Z,49.30
2022-09-06T03:20:47.344Z,49.30
2022-09-06T03:23:13.851Z,49.20
2022-09-06T03:25:40.371Z,49.30
2022-09-06T03:28:06.912Z,49.30
2022-09-06T03:30:33.454Z,49.40
2022-09-06T03:33:02.743Z,49.40
2022-09-06T03:35:29.613Z,49.50
2022-09-06T03:37:56.126Z,49.40
2022-09-06T03:40:22.646Z,49.40
2022-09-06T03:42:49.160Z,49.50
2022-09-06T03:45:15.765Z,49.60
2022-09-06T03:47:42.291Z,49.60
2022-09-06T03:50:08.825Z,49.60
2022-09-06T03:52:35.344Z,49.60
2022-09-06T03:55:01.862Z,49.50
2022-09-06T03:57:28.388Z,49.40
2022-09-06T03:59:54.901Z,49.50
2022-09-06T04:02:21.456Z,49.60
2022-09-06T04:04:47.993Z,49.60
2022-09-06T04:07:17.753Z,49.70
2022-09-06T04:09:44.269Z,49.60
2022-09-06T04:12:10.791Z,49.60
2022-09-06T04:14:37.283Z,49.70
2022-09-06T04:17:03.828Z,49.60
2022-09-06T04:19:30.426Z,49.60
2022-09-06T04:21:56.945Z,49.60
2022-09-06T04:24:23.474Z,49.60
2022-09-06T04:26:49.978Z,49.60
2022-09-06T04:29:16.502Z,49.60
2022-09-06T04:31:43.065Z,49.60
2022-09-06T04:34:09.632Z,49.70
2022-09-06T04:36:36.147Z,49.70
2022-09-06T04:39:02.660Z,49.80
2022-09-06T04:41:29.190Z,49.90
2022-09-06T04:43:55.705Z,49.90
2022-09-06T04:46:22.341Z,49.80
2022-09-06T04:48:48.911Z,50.00
2022-09-06T04:51:15.439Z,49.90
2022-09-06T04:53:41.952Z,49.90
2022-09-06T04:56:08.516Z,50.00
2022-09-06T04:58:35.021Z,50.00
2022-09-06T05:01:01.733Z,50.00
2022-09-06T05:03:28.300Z,50.10
2022-09-06T05:05:54.844Z,50.00
2022-09-06T05:08:21.403Z,50.10
2022-09-06T05:10:47.950Z,50.10
2022-09-06T05:13:14.466Z,50.00
2022-09-06T05:15:40.985Z,50.10
2022-09-06T05:18:07.502Z,50.20
2022-09-06T05:20:34.021Z,50.20
2022-09-06T05:23:00.544Z,50.20
2022-09-06T05:25:27.060Z,50.20
2022-09-06T05:27:53.584Z,50.10
2022-09-06T05:30:20.121Z,50.30
2022-09-06T05:32:46.638Z,50.20
2022-09-06T05:35:13.196Z,50.30
2022-09-06T05:37:39.709Z,50.30
2022-09-06T05:40:06.298Z,50.20
2022-09-06T05:42:32.878Z,50.20
2022-09-06T05:44:59.411Z,50.20
2022-09-06T05:47:25.937Z,50.20
2022-09-06T05:49:52.479Z,50.20
2022-09-06T05:52:18.992Z,50.10
2022-09-06T05:54:45.513Z,50.20
2022-09-06T05:57:12.020Z,50.30
2022-09-06T05:59:38.548Z,50.20
2022-09-06T06:02:07.366Z,50.10
2022-09-06T06:04:34.229Z,50.10
2022-09-06T06:07:00.730Z,50.10
2022-09-06T06:09:27.263Z,50.20
2022-09-06T06:11:53.760Z,50.10
2022-09-06T06:14:20.310Z,50.20
2022-09-06T06:16:46.903Z,50.10
2022-09-06T06:19:13.549Z,50.20
2022-09-06T06:21:40.062Z,50.30
2022-09-06T06:24:06.599Z,50.30
2022-09-06T06:26:33.115Z,50.30
2022-09-06T06:28:59.612Z,50.30
2022-09-06T06:31:26.176Z,50.20
2022-09-06T06:33:52.712Z,50.20
2022-09-06T06:36:19.244Z,50.10
2022-09-06T06:38:45.757Z,50.20
2022-09-06T06:41:12.278Z,50.10
2022-09-06T06:43:38.781Z,50.10
2022-09-06T06:46:05.339Z,50.10
2022-09-06T06:48:31.898Z,50.00
2022-09-06T06:50:58.427Z,50.00
2022-09-06T06:53:24.959Z,50.00
2022-09-06T06:55:51.473Z,49.90
2022-09-06T06:58:17.976Z,49.80
2022-09-06T07:00:44.564Z,49.90
2022-09-06T07:03:11.182Z,49.90
2022-09-06T07:08:24.247Z,50.00
2022-09-06T07:10:50.776Z,50.00
2022-09-06T07:13:17.302Z,50.00
2022-09-06T07:15:43.814Z,50.00
2022-09-06T07:18:10.338Z,50.00
2022-09-06T07:26:09.844Z,49.90
2022-09-06T07:28:36.382Z,49.90
2022-09-06T07:31:03.475Z,49.90
2022-09-06T07:33:30.080Z,49.80
2022-09-06T07:35:56.617Z,49.80
2022-09-06T07:38:23.122Z,49.80
2022-09-06T07:40:49.649Z,49.80
2022-09-06T07:43:16.151Z,49.70
2022-09-06T07:45:42.667Z,49.70
2022-09-06T07:48:09.185Z,49.70
2022-09-06T07:50:52.634Z,49.80
2022-09-06T07:53:29.760Z,49.70
2022-09-06T07:55:56.931Z,49.70
2022-09-06T07:58:23.695Z,49.70
2022-09-06T08:00:50.284Z,49.70
2022-09-06T08:03:16.867Z,49.70
2022-09-06T08:11:16.520Z,49.70
2022-09-06T08:13:43.044Z,49.70
2022-09-06T08:16:09.624Z,49.80
2022-09-06T08:18:36.174Z,49.70
2022-09-06T08:21:02.707Z,49.80
2022-09-06T08:23:29.221Z,49.80
2022-09-06T08:25:55.732Z,49.70
2022-09-06T08:28:24.530Z,49.70
2022-09-06T08:30:53.358Z,49.80
2022-09-06T08:33:19.879Z,49.70
2022-09-06T08:35:46.418Z,49.80
2022-09-06T08:38:12.941Z,49.90
2022-09-06T08:40:39.472Z,49.90
2022-09-06T08:43:05.974Z,49.90
2022-09-06T08:45:32.499Z,49.90
2022-09-06T08:47:59.014Z,49.90
2022-09-06T08:50:25.519Z,50.00
2022-09-06T08:53:15.563Z,50.00
2022-09-06T08:55:38.542Z,49.90
2022-09-06T08:58:05.056Z,50.00
2022-09-06T09:00:31.633Z,50.10
2022-09-06T09:02:58.170Z,50.00
2022-09-06T09:05:24.676Z,50.00
2022-09-06T09:07:51.196Z,49.90
2022-09-06T09:10:17.744Z,50.00
2022-09-06T09:12:44.275Z,50.00
2022-09-06T09:15:10.794Z,50.00
2022-09-06T09:17:37.305Z,50.10
2022-09-06T09:20:03.832Z,50.00
2022-09-06T09:22:30.366Z,50.10
2022-09-06T09:24:56.867Z,50.00
2022-09-06T09:27:23.390Z,50.00
2022-09-06T09:32:36.377Z,50.00
2022-09-06T09:35:02.876Z,50.00
2022-09-06T09:40:11.196Z,50.10
2022-09-06T09:42:37.742Z,50.10
2022-09-06T09:45:04.266Z,50.10
2022-09-06T09:47:30.801Z,50.10
2022-09-06T09:49:57.316Z,50.10
2022-09-06T09:52:23.846Z,50.00
2022-09-06T09:54:50.361Z,50.10
2022-09-06T09:57:16.880Z,50.00
2022-09-06T09:59:43.394Z,50.00
2022-09-06T10:02:09.902Z,50.00
2022-09-06T10:04:44.251Z,50.00
2022-09-06T10:07:11.404Z,50.00
2022-09-06T10:09:37.975Z,50.00
2022-09-06T10:12:04.514Z,49.90
2022-09-06T10:14:31.038Z,49.90
2022-09-06T10:16:57.579Z,49.90
2022-09-06T10:19:24.076Z,49.90
2022-09-06T10:21:50.611Z,49.90
2022-09-06T10:24:32.477Z,49.90
2022-09-06T10:26:59.011Z,49.80
2022-09-06T10:29:25.523Z,50.00
2022-09-06T10:31:52.055Z,50.00
2022-09-06T10:34:18.590Z,49.90
2022-09-06T10:36:45.113Z,49.90
2022-09-06T10:39:11.618Z,49.80
2022-09-06T10:41:38.134Z,49.90
2022-09-06T10:44:04.635Z,49.70
2022-09-06T10:46:31.207Z,49.70
2022-09-06T10:48:57.767Z,49.70
2022-09-06T10:51:24.286Z,49.70
2022-09-06T10:53:50.802Z,49.60
2022-09-06T10:56:17.344Z,49.60
2022-09-06T11:01:30.430Z,49.50
2022-09-06T11:04:00.217Z,49.50
2022-09-06T11:06:30.933Z,49.40
2022-09-06T11:08:58.237Z,49.30
2022-09-06T11:11:25.000Z,49.30
2022-09-06T11:13:51.514Z,49.30
2022-09-06T11:16:18.116Z,49.30
2022-09-06T11:18:44.721Z,49.30
2022-09-06T11:21:11.255Z,49.40
2022-09-06T11:23:42.287Z,49.40
2022-09-06T11:26:08.815Z,49.40
2022-09-06T11:28:35.339Z,49.50
2022-09-06T11:31:01.902Z,49.50
2022-09-06T11:33:28.533Z,49.60
2022-09-06T11:35:55.127Z,49.60
2022-09-06T11:38:21.649Z,49.60
2022-09-06T11:40:48.188Z,49.60
2022-09-06T11:43:14.696Z,49.50
2022-09-06T11:45:41.231Z,49.50
2022-09-06T11:48:07.749Z,49.50
2022-09-06T11:50:34.278Z,49.60
2022-09-06T11:53:00.799Z,49.60
2022-09-06T11:55:27.309Z,49.60
2022-09-06T11:57:53.831Z,49.70
2022-09-06T12:00:20.361Z,49.80
2022-09-06T12:02:46.911Z,49.70
2022-09-06T12:05:13.503Z,49.60
2022-09-06T12:07:40.028Z,49.50
2022-09-06T12:10:06.578Z,49.40
2022-09-06T12:12:33.132Z,49.50
2022-09-06T12:14:59.651Z,49.40
2022-09-06T12:17:26.201Z,49.40
2022-09-06T12:19:52.717Z,49.50
2022-09-06T12:22:19.262Z,49.60
2022-09-06T12:24:45.781Z,49.60
2022-09-06T12:27:12.331Z,49.60
2022-09-06T12:29:38.838Z,49.50
2022-09-06T12:32:05.384Z,49.40
2022-09-06T12:34:31.917Z,49.40
2022-09-06T12:36:58.447Z,49.40
2022-09-06T12:39:25.051Z,49.40
2022-09-06T12:41:51.648Z,49.50
2022-09-06T12:44:18.163Z,49.60
2022-09-06T12:46:44.690Z,49.60
2022-09-06T12:49:11.240Z,49.70
2022-09-06T12:51:37.738Z,49.70
2022-09-06T12:54:04.280Z,49.70
2022-09-06T12:56:30.816Z,49.70
2022-09-06T12:58:57.348Z,49.60
2022-09-06T13:01:23.980Z,49.60
2022-09-06T13:03:50.674Z,49.70
2022-09-06T13:06:17.190Z,49.70
2022-09-06T13:08:43.725Z,49.70
2022-09-06T13:11:10.243Z,49.60
2022-09-06T13:13:36.918Z,49.60
2022-09-06T13:16:03.511Z,49.50
2022-09-06T13:18:30.183Z,49.50
2022-09-06T13:20:56.838Z,49.50
2022-09-06T13:23:24.210Z,49.50
2022-09-06T13:25:50.720Z,49.50
2022-09-06T13:28:17.234Z,49.40
2022-09-06T13:30:46.784Z,49.30
2022-09-06T13:33:15.663Z,49.30
2022-09-06T13:35:42.172Z,49.40
2022-09-06T13:38:08.684Z,49.30
2022-09-06T13:40:48.402Z,49.40
2022-09-06T13:43:21.742Z,49.30
2022-09-06T13:45:48.255Z,49.30
2022-09-06T13:48:28.802Z,49.30
2022-09-06T13:50:55.942Z,49.40
2022-09-06T13:53:22.451Z,49.30
2022-09-06T13:55:48.952Z,49.30
2022-09-06T13:58:15.476Z,49.40
2022-09-06T14:00:42.007Z,49.30
2022-09-06T14:03:08.535Z,49.20
2022-09-06T14:05:35.067Z,49.20
2022-09-06T14:08:01.632Z,49.20
2022-09-06T14:10:28.145Z,49.30
2022-09-06T14:12:54.646Z,49.30
2022-09-06T14:15:21.147Z,49.30
2022-09-06T14:17:47.670Z,49.30
2022-09-06T14:20:14.203Z,49.40
2022-09-06T14:22:40.706Z,49.50
2022-09-06T14:25:07.233Z,49.50
2022-09-06T14:27:33.744Z,49.50
2022-09-06T14:30:00.366Z,49.60
2022-09-06T14:32:26.896Z,49.50
2022-09-06T14:34:53.423Z,49.40
2022-09-06T14:37:19.927Z,49.50
2022-09-06T14:39:46.473Z,49.40
2022-09-06T14:42:13.023Z,49.00
2022-09-06T14:44:39.584Z,49.60
2022-09-06T14:47:06.118Z,48.80
2022-09-06T14:49:32.653Z,48.90
2022-09-06T14:51:59.169Z,48.80
2022-09-06T14:54:29.109Z,48.90
2022-09-06T14:56:55.949Z,48.90
2022-09-06T14:59:22.495Z,48.90
2022-09-06T15:01:49.100Z,48.90
2022-09-06T15:04:15.695Z,48.60
2022-09-06T15:06:42.219Z,48.40
2022-09-06T15:09:08.774Z,48.20
2022-09-06T15:11:35.272Z,48.10
2022-09-06T15:14:01.777Z,47.90
2022-09-06T15:16:28.288Z,47.70
2022-09-06T15:18:54.804Z,47.70
2022-09-06T15:21:21.309Z,47.70
2022-09-06T15:23:47.830Z,47.70
2022-09-06T15:26:14.361Z,47.80
2022-09-06T15:28:40.889Z,47.70
2022-09-06T15:31:07.481Z,47.50
2022-09-06T15:33:34.000Z,47.60
2022-09-06T15:36:00.523Z,47.60
2022-09-06T15:38:27.052Z,47.40
2022-09-06T15:40:53.582Z,47.40
2022-09-06T15:43:20.085Z,47.30
2022-09-06T15:45:46.650Z,47.20
2022-09-06T15:48:13.198Z,47.20
2022-09-06T15:50:50.727Z,47.00
2022-09-06T15:53:19.068Z,46.90
2022-09-06T15:55:45.594Z,47.70
2022-09-06T15:58:12.110Z,46.90
2022-09-06T16:00:38.610Z,46.90
2022-09-06T16:03:05.257Z,46.80
2022-09-06T16:08:18.348Z,46.90
2022-09-06T16:10:44.856Z,46.90
2022-09-06T16:13:11.375Z,46.80
2022-09-06T16:15:37.901Z,46.90
2022-09-06T16:18:04.436Z,46.80
2022-09-06T16:20:33.471Z,47.00
2022-09-06T16:23:00.110Z,46.90
2022-09-06T16:25:26.625Z,47.00
2022-09-06T16:27:53.139Z,46.90
2022-09-06T16:30:19.645Z,47.00
2022-09-06T16:32:46.174Z,47.00
2022-09-06T16:35:12.706Z,47.10
2022-09-06T16:37:39.228Z,47.10
2022-09-06T16:40:05.839Z,47.10
2022-09-06T16:42:32.442Z,47.20
2022-09-06T16:44:58.966Z,47.10
2022-09-06T16:47:25.495Z,47.20
2022-09-06T16:49:52.102Z,47.30
2022-09-06T16:52:18.658Z,47.30
2022-09-06T16:54:45.205Z,47.40
2022-09-06T16:57:11.734Z,47.40
2022-09-06T16:59:38.271Z,47.50
2022-09-06T17:02:04.883Z,47.50
2022-09-06T17:04:31.518Z,47.60
2022-09-06T17:06:58.034Z,47.60
2022-09-06T17:09:24.570Z,47.60
2022-09-06T17:11:51.079Z,47.70
2022-09-06T17:14:17.605Z,47.80
2022-09-06T17:16:44.172Z,47.80
2022-09-06T17:19:10.732Z,47.90
2022-09-06T17:21:37.246Z,48.00
2022-09-06T17:24:03.781Z,48.00
2022-09-06T17:26:30.282Z,48.00
2022-09-06T17:28:56.846Z,48.20
2022-09-06T17:31:25.829Z,48.30
2022-09-06T17:33:52.612Z,48.30
2022-09-06T17:36:19.129Z,48.30
2022-09-06T17:38:47.912Z,48.40
2022-09-06T17:41:17.619Z,48.40
2022-09-06T17:43:44.135Z,48.50
2022-09-06T17:46:10.759Z,48.50
2022-09-06T17:48:42.509Z,48.50
2022-09-06T17:51:09.049Z,48.60
2022-09-06T17:53:35.583Z,48.60
2022-09-06T17:56:02.101Z,48.60
2022-09-06T17:58:28.647Z,48.70
2022-09-06T18:00:55.249Z,48.70
2022-09-06T18:03:21.790Z,48.70
2022-09-06T18:05:48.310Z,48.70
2022-09-06T18:08:14.831Z,48.70
2022-09-06T18:10:41.353Z,48.70
2022-09-06T18:13:07.883Z,48.70
2022-09-06T18:15:34.402Z,48.70
2022-09-06T18:18:00.924Z,48.70
2022-09-06T18:20:27.430Z,48.70
2022-09-06T18:22:53.948Z,48.70
2022-09-06T18:25:20.489Z,48.80
2022-09-06T18:33:21.927Z,48.80
2022-09-06T18:38:38.801Z,48.90
2022-09-06T18:43:55.669Z,48.90
2022-09-06T18:49:12.618Z,48.90
2022-09-06T18:54:23.334Z,49.00
2022-09-06T18:59:33.746Z,49.00
2022-09-06T19:04:44.257Z,49.00
2022-09-06T19:09:54.709Z,49.00
2022-09-06T19:15:05.293Z,49.00
2022-09-06T19:20:15.665Z,49.00
2022-09-06T19:25:26.309Z,49.00
2022-09-06T19:30:36.744Z,49.00
2022-09-06T19:36:07.972Z,49.10
2022-09-06T19:41:17.789Z,49.00
2022-09-06T19:46:28.208Z,49.10
2022-09-06T19:51:38.740Z,49.80
2022-09-06T19:56:55.635Z,49.20
2022-09-06T20:02:12.769Z,49.10
2022-09-06T20:07:29.831Z,49.10
2022-09-06T20:12:46.529Z,49.10
2022-09-06T20:18:03.640Z,49.10
2022-09-06T20:23:20.851Z,49.10
2022-09-06T20:28:37.735Z,49.10
2022-09-06T20:33:54.551Z,49.20
2022-09-06T20:39:11.553Z,49.00
2022-09-06T20:44:22.248Z,49.10
2022-09-06T20:49:33.095Z,49.10
2022-09-06T20:54:43.481Z,49.10
2022-09-06T20:59:54.139Z,49.80
2022-09-06T21:05:04.758Z,49.20
2022-09-06T21:10:15.153Z,49.20
2022-09-06T21:15:25.967Z,49.10
2022-09-06T21:20:36.747Z,49.10
2022-09-06T21:25:47.232Z,49.10
2022-09-06T21:30:58.018Z,49.10
2022-09-06T21:36:08.704Z,49.10
2022-09-06T21:41:19.439Z,49.10
2022-09-06T21:46:32.971Z,49.00
2022-09-06T21:51:50.474Z,49.00
2022-09-06T21:57:07.523Z,49.00
2022-09-06T22:02:24.616Z,49.00
2022-09-06T22:07:41.462Z,49.00
2022-09-06T22:12:58.731Z,49.00
2022-09-06T22:18:15.713Z,49.00
2022-09-06T22:23:32.486Z,48.90
2022-09-06T22:28:49.720Z,48.90
2022-09-06T22:34:06.709Z,48.90
2022-09-06T22:39:17.303Z,48.80
2022-09-06T22:44:28.097Z,48.80
2022-09-06T22:49:38.809Z,48.80
2022-09-06T22:54:49.296Z,48.80
2022-09-06T22:59:59.936Z,48.80
2022-09-06T23:05:10.616Z,48.70
2022-09-06T23:10:20.919Z,48.70
2022-09-06T23:15:31.247Z,48.60
2022-09-06T23:20:41.695Z,48.70
2022-09-06T23:25:52.381Z,48.70
2022-09-06T23:31:03.059Z,48.60
2022-09-06T23:36:13.828Z,48.60
2022-09-06T23:41:24.639Z,48.60
2022-09-06T23:46:35.069Z,48.60
2022-09-06T23:51:52.735Z,48.50
2022-09-06T23:57:09.684Z,48.50
